»·PEaware :: N441Z L52-L88

N441Z :: L52-L88

FLIGHT INFORMATION

Flight Status: Arrived
Operator: Privately registered:
United States
More flights under this callsign
Pilot: Mike B. (23289)
Aircraft: CESSNA T210 TURBO CENTURION
(T210)
More flights by this aircraft type
Origin: L52 Oceano Co
United States
Destination: L88 New Cuyama
United States
More flights between these airports :: More routes between these airports
Route: DCT
File this flight plan on PilotEdge
Remarks: VFR DIRECT
Altitude:
(Current/Filed)
5,500ft
Speed:
(Current/Filed)
115kts
Departed: 03-Feb-19 07:49 AM
Arrived: 03-Feb-19 08:12 AM
Distance/Time
Traveled:
47nm/0:23
Distance/Time
To Go:
Arrived

Flight Plot

Page will automatically refresh every two minutes.


Map Options




Map Legend


Flown Route
Filed Route
Departure Airport
Arrival Airport
Navaid (VOR, NDB)
Fix

Horizontal Profiles

Position Reports

Time Latitude Longitude Heading Altitude Ground
Speed
03-Feb-19 07:23 35.103272 -120.624322 33 18ft 0kts
03-Feb-19 07:24 35.103272 -120.624322 33 18ft 0kts
03-Feb-19 07:25 35.103272 -120.624322 33 18ft 0kts
03-Feb-19 07:26 35.103272 -120.624322 33 18ft 0kts
03-Feb-19 07:27 35.103272 -120.624322 33 18ft 0kts
03-Feb-19 07:28 35.103272 -120.624322 33 18ft 0kts
03-Feb-19 07:29 35.103272 -120.624322 33 18ft 0kts
03-Feb-19 07:30 35.103272 -120.624322 33 18ft 0kts
03-Feb-19 07:31 35.103272 -120.624322 33 18ft 0kts
03-Feb-19 07:32 35.103272 -120.624322 33 18ft 0kts
03-Feb-19 07:33 35.103272 -120.624322 33 18ft 0kts
03-Feb-19 07:34 35.103272 -120.624322 33 18ft 0kts
03-Feb-19 07:35 35.103272 -120.624322 33 18ft 0kts
03-Feb-19 07:36 35.103272 -120.624322 33 18ft 0kts
03-Feb-19 07:37 35.103272 -120.624322 33 18ft 0kts
03-Feb-19 07:38 35.103272 -120.624322 33 18ft 0kts
03-Feb-19 07:39 35.103272 -120.624322 33 18ft 0kts
03-Feb-19 07:40 35.103272 -120.624322 33 18ft 0kts
03-Feb-19 07:41 35.103479 -120.624333 308 18ft 2kts
03-Feb-19 07:42 35.103529 -120.625304 210 18ft 4kts
03-Feb-19 07:43 35.102174 -120.624553 112 18ft 6kts
03-Feb-19 07:44 35.100611 -120.621577 120 18ft 7kts
03-Feb-19 07:45 35.099784 -120.620020 124 18ft 9kts
03-Feb-19 07:46 35.099545 -120.619525 61 18ft 0kts
03-Feb-19 07:47 35.099547 -120.619521 58 18ft 1kts
03-Feb-19 07:48 35.106676 -120.632401 297 471ft 92kts
03-Feb-19 07:49 35.100145 -120.654448 175 2007ft 107kts
03-Feb-19 07:50 35.096879 -120.614156 75 2721ft 143kts
03-Feb-19 07:51 35.096718 -120.565287 107 3709ft 143kts
03-Feb-19 07:52 35.085081 -120.518340 111 4441ft 153kts
03-Feb-19 07:53 35.073844 -120.468301 116 4689ft 150kts
03-Feb-19 07:54 35.064470 -120.418054 108 4975ft 149kts
03-Feb-19 07:55 35.060854 -120.366486 106 5239ft 153kts
03-Feb-19 07:56 35.049612 -120.318627 109 5501ft 156kts
03-Feb-19 07:57 35.040265 -120.265140 107 5507ft 164kts
03-Feb-19 07:58 35.030909 -120.210355 107 5507ft 165kts
03-Feb-19 07:59 35.021410 -120.155149 107 5508ft 167kts
03-Feb-19 08:00 35.012050 -120.098805 103 5509ft 172kts
03-Feb-19 08:01 35.002887 -120.041216 106 5513ft 174kts
03-Feb-19 08:02 34.993558 -119.983481 100 5500ft 165kts
03-Feb-19 08:03 34.983819 -119.929574 107 5508ft 163kts
03-Feb-19 08:04 34.974077 -119.875265 106 5507ft 164kts
03-Feb-19 08:05 34.965561 -119.823133 105 5100ft 163kts
03-Feb-19 08:06 34.958619 -119.767332 93 3878ft 159kts
03-Feb-19 08:07 34.956534 -119.714385 88 3145ft 140kts
03-Feb-19 08:08 34.957637 -119.669725 92 2786ft 101kts
03-Feb-19 08:09 34.944125 -119.657469 202 3030ft 82kts
03-Feb-19 08:10 34.936334 -119.676622 298 2341ft 71kts
03-Feb-19 08:11 34.941034 -119.688188 294 2163ft 7kts
03-Feb-19 08:12 34.942433 -119.690626 277 2153ft 0kts
03-Feb-19 08:13 34.942433 -119.690626 277 2153ft 0kts
03-Feb-19 08:14 34.942433 -119.690626 277 2153ft 0kts

Navigation Log

Ident Type
Flight plan parsing failed, navigation log unavailable